Time;durP1;ratioP1;P1;durP2;ratioP2;P2;SDS_P1;SDS_P2;PMS_P1;PMS_P2;Temp;Humidity;BMP_temperature;BMP_pressure;BME280_temperature;BME280_humidity;BME280_pressure;Samples;Min_cycle;Max_cycle;Signal;HPM_P1;HPM_P2
2023/04/27 00:01:29;;;;;;;8.75;4.05;;;;;;;;;;4939961;29;20434;-81
2023/04/27 00:03:55;;;;;;;8.65;3.90;;;;;;;;;;4917874;29;20083;-77
2023/04/27 00:06:21;;;;;;;7.30;3.53;;;;;;;;;;4926953;29;20478;-78
2023/04/27 00:08:46;;;;;;;8.23;4.10;;;;;;;;;;4932323;29;20066;-79
2023/04/27 00:11:11;;;;;;;10.52;3.70;;;;;;;;;;4917241;29;20032;-79
2023/04/27 00:13:36;;;;;;;10.35;3.65;;;;;;;;;;4918055;29;20514;-78
2023/04/27 00:16:02;;;;;;;7.13;3.60;;;;;;;;;;4918179;29;20405;-82
2023/04/27 00:18:28;;;;;;;10.73;3.72;;;;;;;;;;4937953;29;20072;-79
2023/04/27 00:20:54;;;;;;;8.32;3.50;;;;;;;;;;4940739;29;20045;-81
2023/04/27 00:23:19;;;;;;;6.55;3.30;;;;;;;;;;4938160;29;20117;-79
2023/04/27 00:25:44;;;;;;;15.10;4.10;;;;;;;;;;4919796;29;20031;-80
2023/04/27 00:28:09;;;;;;;4.37;2.83;;;;;;;;;;4923472;29;20020;-79
2023/04/27 00:30:35;;;;;;;9.93;3.58;;;;;;;;;;4925995;29;20283;-81
2023/04/27 00:33:00;;;;;;;5.20;3.38;;;;;;;;;;4929151;29;20024;-80
2023/04/27 00:35:25;;;;;;;11.07;3.90;;;;;;;;;;4936411;29;20087;-82
2023/04/27 00:37:52;;;;;;;5.65;4.25;;;;;;;;;;4937828;29;20437;-81
2023/04/27 00:40:19;;;;;;;5.28;3.30;;;;;;;;;;4931385;29;20051;-83
2023/04/27 00:42:44;;;;;;;10.18;3.72;;;;;;;;;;4931969;29;20028;-81
2023/04/27 00:45:10;;;;;;;6.32;3.40;;;;;;;;;;4934500;29;20015;-81
2023/04/27 00:47:35;;;;;;;6.30;3.28;;;;;;;;;;4947285;29;20016;-80
2023/04/27 00:50:00;;;;;;;6.40;3.40;;;;;;;;;;4913540;29;20028;-80
2023/04/27 00:52:26;;;;;;;7.03;3.20;;;;;;;;;;4935343;29;20032;-81
2023/04/27 00:54:51;;;;;;;7.70;3.65;;;;;;;;;;4941566;29;20212;-82
2023/04/27 00:57:17;;;;;;;6.28;3.22;;;;;;;;;;4938208;29;20163;-80
2023/04/27 00:59:42;;;;;;;7.65;3.58;;;;;;;;;;4936643;29;20528;-79
2023/04/27 01:02:11;;;;;;;9.90;3.05;;;;;;;;;;4917936;29;20028;-80
2023/04/27 01:04:36;;;;;;;7.82;3.40;;;;;;;;;;4936190;29;20034;-79
2023/04/27 01:07:02;;;;;;;6.38;3.47;;;;;;;;;;4934076;29;20023;-81
2023/04/27 01:10:03;;;;;;;7.35;3.17;;;;;;;;;;4952405;29;20075;-84
2023/04/27 01:12:28;;;;;;;7.38;3.55;;;;;;;;;;4934239;29;20031;-82
2023/04/27 01:14:54;;;;;;;7.85;3.90;;;;;;;;;;4951603;29;20079;-80
2023/04/27 01:17:19;;;;;;;13.23;2.92;;;;;;;;;;4933105;29;20027;-79
2023/04/27 01:19:44;;;;;;;12.48;3.30;;;;;;;;;;4931081;29;20615;-81
2023/04/27 01:22:10;;;;;;;7.07;3.03;;;;;;;;;;4936967;29;20068;-82
2023/04/27 01:24:35;;;;;;;8.13;3.38;;;;;;;;;;4941085;29;20020;-81
2023/04/27 01:27:01;;;;;;;5.00;2.80;;;;;;;;;;4937323;29;20011;-81
2023/04/27 01:29:27;;;;;;;6.15;2.90;;;;;;;;;;4952592;29;20482;-80
2023/04/27 01:31:52;;;;;;;6.82;3.00;;;;;;;;;;4948632;29;20022;-81
2023/04/27 01:34:17;;;;;;;6.10;3.75;;;;;;;;;;4937236;29;20027;-81
2023/04/27 01:36:42;;;;;;;7.22;3.10;;;;;;;;;;4941155;29;20035;-82
2023/04/27 01:39:10;;;;;;;6.82;3.08;;;;;;;;;;4956720;29;20079;-80
2023/04/27 01:41:55;;;;;;;6.32;3.35;;;;;;;;;;4956215;29;20051;-82
2023/04/27 01:44:22;;;;;;;9.73;3.20;;;;;;;;;;4955361;29;20075;-82
2023/04/27 01:47:02;;;;;;;9.18;3.53;;;;;;;;;;4955964;29;20054;-80
2023/04/27 01:49:27;;;;;;;6.05;2.75;;;;;;;;;;4937686;29;20047;-80
2023/04/27 01:51:52;;;;;;;6.70;2.95;;;;;;;;;;4932709;29;20047;-80
2023/04/27 01:54:18;;;;;;;7.07;3.00;;;;;;;;;;4942174;29;20033;-83
2023/04/27 01:56:43;;;;;;;5.93;2.55;;;;;;;;;;4935509;29;20272;-80
2023/04/27 01:59:08;;;;;;;6.97;2.97;;;;;;;;;;4955926;29;20019;-83
2023/04/27 02:01:34;;;;;;;10.70;3.45;;;;;;;;;;4957816;29;20549;-81
2023/04/27 02:03:59;;;;;;;5.53;2.78;;;;;;;;;;4922344;29;20036;-81
2023/04/27 02:06:24;;;;;;;6.75;3.00;;;;;;;;;;4931675;29;20028;-81
2023/04/27 02:08:52;;;;;;;11.55;3.50;;;;;;;;;;4937237;29;20076;-81
2023/04/27 02:11:18;;;;;;;4.82;2.70;;;;;;;;;;4939675;29;20055;-80
2023/04/27 02:13:43;;;;;;;8.25;3.20;;;;;;;;;;4956994;29;20020;-82
2023/04/27 02:16:08;;;;;;;4.78;2.53;;;;;;;;;;4938275;29;20019;-80
2023/04/27 02:18:34;;;;;;;6.13;3.03;;;;;;;;;;4937308;29;20028;-80
2023/04/27 02:21:18;;;;;;;9.13;2.85;;;;;;;;;;4954861;29;20016;-82
2023/04/27 02:23:43;;;;;;;7.55;3.40;;;;;;;;;;4953943;29;20102;-81
2023/04/27 02:26:14;;;;;;;10.70;3.55;;;;;;;;;;4955486;29;20012;-81
2023/04/27 02:28:40;;;;;;;11.80;5.88;;;;;;;;;;4956384;29;20054;-82
2023/04/27 02:31:05;;;;;;;8.60;2.63;;;;;;;;;;4939255;29;20115;-82
2023/04/27 02:33:30;;;;;;;6.00;2.58;;;;;;;;;;4939949;29;20072;-80
2023/04/27 02:35:56;;;;;;;5.82;2.63;;;;;;;;;;4938055;29;20031;-83
2023/04/27 02:38:21;;;;;;;11.38;2.97;;;;;;;;;;4937860;29;20043;-82
2023/04/27 02:40:51;;;;;;;5.20;2.80;;;;;;;;;;4938805;29;20052;-82
2023/04/27 02:43:16;;;;;;;7.03;4.50;;;;;;;;;;4936739;29;20019;-82
2023/04/27 02:45:42;;;;;;;6.30;2.50;;;;;;;;;;4935516;29;20031;-82
2023/04/27 02:48:07;;;;;;;5.25;2.90;;;;;;;;;;4934560;29;20024;-82
2023/04/27 02:50:32;;;;;;;6.00;2.72;;;;;;;;;;4954484;29;20023;-83
2023/04/27 02:52:58;;;;;;;5.35;2.67;;;;;;;;;;4936354;29;20054;-81
2023/04/27 02:55:23;;;;;;;6.35;3.28;;;;;;;;;;4937323;29;20032;-80
2023/04/27 02:57:49;;;;;;;8.82;2.60;;;;;;;;;;4952735;29;20022;-81
2023/04/27 03:00:14;;;;;;;5.90;2.78;;;;;;;;;;4933265;29;20028;-80
2023/04/27 03:02:39;;;;;;;7.05;2.67;;;;;;;;;;4947624;29;20812;-80
2023/04/27 03:05:05;;;;;;;5.72;2.55;;;;;;;;;;4944475;29;20016;-80
2023/04/27 03:07:31;;;;;;;8.65;2.75;;;;;;;;;;4927129;29;20027;-80
2023/04/27 03:09:56;;;;;;;8.32;2.53;;;;;;;;;;4927651;29;20066;-81
2023/04/27 03:12:21;;;;;;;5.72;2.78;;;;;;;;;;4948394;29;20075;-80
2023/04/27 03:14:46;;;;;;;6.82;2.70;;;;;;;;;;4909600;29;20051;-77
2023/04/27 03:17:13;;;;;;;6.68;3.13;;;;;;;;;;4914210;29;20033;-82
2023/04/27 03:19:38;;;;;;;6.57;2.50;;;;;;;;;;4918721;29;20054;-81
2023/04/27 03:22:03;;;;;;;7.85;2.80;;;;;;;;;;4935941;29;20031;-81
2023/04/27 03:24:29;;;;;;;9.82;2.80;;;;;;;;;;4930927;29;20028;-80
2023/04/27 03:26:55;;;;;;;8.18;2.90;;;;;;;;;;4948615;29;20007;-80
2023/04/27 03:29:20;;;;;;;12.60;2.47;;;;;;;;;;4951495;29;20031;-80
2023/04/27 03:31:45;;;;;;;9.82;2.85;;;;;;;;;;4922139;29;20020;-80
2023/04/27 03:34:10;;;;;;;8.07;2.88;;;;;;;;;;4926636;29;20036;-79
2023/04/27 03:36:36;;;;;;;6.97;3.42;;;;;;;;;;4917860;29;20057;-77
2023/04/27 03:39:01;;;;;;;6.03;3.33;;;;;;;;;;4913887;29;20147;-78
2023/04/27 03:41:27;;;;;;;6.15;3.30;;;;;;;;;;4914052;29;20019;-79
2023/04/27 03:43:52;;;;;;;9.90;4.05;;;;;;;;;;4928228;29;20028;-79
2023/04/27 03:46:17;;;;;;;7.85;2.83;;;;;;;;;;4914203;29;20402;-79
2023/04/27 03:48:43;;;;;;;11.13;3.25;;;;;;;;;;4932996;29;20045;-80
2023/04/27 03:51:08;;;;;;;6.60;3.35;;;;;;;;;;4929618;29;20071;-81
2023/04/27 03:53:33;;;;;;;5.32;3.00;;;;;;;;;;4912789;29;20423;-79
2023/04/27 03:56:00;;;;;;;6.43;3.17;;;;;;;;;;4914854;29;20027;-79
2023/04/27 03:58:26;;;;;;;8.55;4.03;;;;;;;;;;4911818;29;20012;-79
2023/04/27 04:00:51;;;;;;;8.50;2.92;;;;;;;;;;4936925;29;20031;-79
2023/04/27 04:03:16;;;;;;;6.65;2.60;;;;;;;;;;4930720;29;20035;-79
2023/04/27 04:05:42;;;;;;;12.50;3.15;;;;;;;;;;4933473;29;20024;-79
2023/04/27 04:08:07;;;;;;;5.55;3.15;;;;;;;;;;4932374;29;20514;-79
2023/04/27 04:10:32;;;;;;;6.00;2.63;;;;;;;;;;4929770;29;20138;-79
2023/04/27 04:12:57;;;;;;;5.65;2.70;;;;;;;;;;4931398;29;20040;-78
2023/04/27 04:15:23;;;;;;;6.50;2.85;;;;;;;;;;4914695;29;20106;-78
2023/04/27 04:17:48;;;;;;;5.03;2.63;;;;;;;;;;4913110;29;20024;-79
2023/04/27 04:20:14;;;;;;;6.13;2.78;;;;;;;;;;4912953;29;20449;-79
2023/04/27 04:22:39;;;;;;;7.18;2.97;;;;;;;;;;4926084;29;20082;-79
2023/04/27 04:25:04;;;;;;;11.07;3.92;;;;;;;;;;4914323;29;20038;-80
2023/04/27 04:27:33;;;;;;;8.00;3.08;;;;;;;;;;4930377;29;20038;-78
2023/04/27 04:30:04;;;;;;;8.70;3.17;;;;;;;;;;4910411;29;20067;-78
2023/04/27 04:32:30;;;;;;;8.20;3.17;;;;;;;;;;4926646;29;20020;-81
2023/04/27 04:34:55;;;;;;;9.10;3.67;;;;;;;;;;4952285;29;20027;-83
2023/04/27 04:37:22;;;;;;;7.57;3.50;;;;;;;;;;4953197;29;20023;-81
2023/04/27 04:39:47;;;;;;;4.35;2.83;;;;;;;;;;4934411;29;20047;-81
2023/04/27 04:42:12;;;;;;;5.10;3.55;;;;;;;;;;4937067;29;20051;-82
2023/04/27 04:44:38;;;;;;;10.77;3.00;;;;;;;;;;4933688;29;20075;-86
2023/04/27 04:47:05;;;;;;;5.90;2.85;;;;;;;;;;4919397;29;20099;-78
2023/04/27 04:49:30;;;;;;;5.75;2.72;;;;;;;;;;4927308;29;20042;-79
2023/04/27 04:51:55;;;;;;;6.05;2.92;;;;;;;;;;4929987;29;20036;-80
2023/04/27 04:54:21;;;;;;;7.43;2.92;;;;;;;;;;4931862;29;20505;-79
2023/04/27 04:56:46;;;;;;;7.55;2.97;;;;;;;;;;4922345;29;20099;-79
2023/04/27 04:59:11;;;;;;;5.50;2.80;;;;;;;;;;4921832;29;20410;-79
2023/04/27 05:01:36;;;;;;;10.48;2.85;;;;;;;;;;4939300;29;20055;-79
2023/04/27 05:04:02;;;;;;;6.35;2.80;;;;;;;;;;4938486;29;20031;-78
2023/04/27 05:06:28;;;;;;;14.85;6.57;;;;;;;;;;4946953;29;20059;-80
2023/04/27 05:08:53;;;;;;;7.13;3.33;;;;;;;;;;4949820;29;20007;-82
2023/04/27 05:11:19;;;;;;;4.72;3.30;;;;;;;;;;4935297;29;20024;-84
2023/04/27 05:13:44;;;;;;;9.85;3.10;;;;;;;;;;4941752;29;20016;-84
2023/04/27 05:16:10;;;;;;;7.28;3.10;;;;;;;;;;4941659;29;20052;-84
2023/04/27 05:18:35;;;;;;;4.57;2.78;;;;;;;;;;5029814;23;20124;-85
2023/04/27 05:23:40;;;;;;;9.82;3.53;;;;;;;;;;5621193;23;20458;-81
2023/04/27 05:28:45;;;;;;;7.60;3.45;;;;;;;;;;5075297;23;20060;-82
2023/04/27 05:31:12;;;;;;;11.98;3.40;;;;;;;;;;4938935;29;20012;-81
2023/04/27 05:33:38;;;;;;;13.68;3.60;;;;;;;;;;4936580;29;20032;-81
2023/04/27 05:36:03;;;;;;;7.65;3.03;;;;;;;;;;5115172;23;20029;-80
2023/04/27 05:38:29;;;;;;;5.63;3.30;;;;;;;;;;4973176;23;20051;-82
2023/04/27 05:40:55;;;;;;;7.03;3.15;;;;;;;;;;4946632;29;20483;-79
2023/04/27 05:43:22;;;;;;;9.40;3.63;;;;;;;;;;4934130;29;20023;-82
2023/04/27 05:45:48;;;;;;;9.65;3.25;;;;;;;;;;4937070;29;20234;-82
2023/04/27 05:48:20;;;;;;;5.65;3.38;;;;;;;;;;4913184;29;20059;-82
2023/04/27 05:50:45;;;;;;;9.80;3.38;;;;;;;;;;4915636;29;20024;-81
2023/04/27 05:53:10;;;;;;;8.38;3.60;;;;;;;;;;4908267;29;20025;-83
2023/04/27 05:55:37;;;;;;;5.68;3.00;;;;;;;;;;4902791;29;20037;-81
2023/04/27 05:58:02;;;;;;;5.90;3.60;;;;;;;;;;4920404;29;20115;-83
2023/04/27 06:00:28;;;;;;;10.13;4.22;;;;;;;;;;4922803;29;20028;-82
2023/04/27 06:02:53;;;;;;;8.75;3.88;;;;;;;;;;4940448;29;20017;-83
2023/04/27 06:05:25;;;;;;;6.00;3.40;;;;;;;;;;4940615;29;20116;-83
2023/04/27 06:07:51;;;;;;;10.25;3.83;;;;;;;;;;4924779;29;20044;-82
2023/04/27 06:10:19;;;;;;;5.07;3.42;;;;;;;;;;4920414;29;20033;-84
2023/04/27 06:12:44;;;;;;;8.32;3.65;;;;;;;;;;4899607;29;20044;-83
2023/04/27 06:15:10;;;;;;;8.75;3.40;;;;;;;;;;4901306;29;20013;-83
2023/04/27 06:17:35;;;;;;;9.48;3.72;;;;;;;;;;4917137;29;20051;-84
2023/04/27 06:20:01;;;;;;;7.22;3.28;;;;;;;;;;4911518;29;20024;-80
2023/04/27 06:22:27;;;;;;;7.90;3.53;;;;;;;;;;4933419;29;20052;-81
2023/04/27 06:24:52;;;;;;;6.88;4.03;;;;;;;;;;4910382;29;20086;-79
2023/04/27 06:27:17;;;;;;;4.45;3.42;;;;;;;;;;4911563;29;20059;-80
2023/04/27 06:29:43;;;;;;;9.13;3.50;;;;;;;;;;4923227;29;20072;-80
2023/04/27 06:32:08;;;;;;;6.95;3.75;;;;;;;;;;4907862;29;20028;-79
2023/04/27 06:34:46;;;;;;;9.85;4.03;;;;;;;;;;4927257;29;20096;-83
2023/04/27 06:37:15;;;;;;;9.02;4.05;;;;;;;;;;4932318;29;20028;-80
2023/04/27 06:39:40;;;;;;;7.90;3.83;;;;;;;;;;4907522;29;20045;-80
2023/04/27 06:42:06;;;;;;;13.38;4.40;;;;;;;;;;4909253;29;20047;-79
2023/04/27 06:44:31;;;;;;;12.52;4.75;;;;;;;;;;4909685;29;20057;-82
2023/04/27 06:46:58;;;;;;;9.80;4.05;;;;;;;;;;4909642;29;20028;-83
2023/04/27 06:49:23;;;;;;;6.43;3.80;;;;;;;;;;4896578;29;20056;-80
2023/04/27 06:51:50;;;;;;;11.13;4.20;;;;;;;;;;4900034;29;20029;-81
2023/04/27 06:54:15;;;;;;;6.32;3.63;;;;;;;;;;4898614;29;20036;-79
2023/04/27 06:56:40;;;;;;;4.88;3.67;;;;;;;;;;4895514;29;20568;-81
2023/04/27 06:59:06;;;;;;;5.82;3.90;;;;;;;;;;4910131;29;20032;-80
2023/04/27 07:01:32;;;;;;;7.00;3.80;;;;;;;;;;4909233;29;20048;-80
2023/04/27 07:03:57;;;;;;;7.68;3.80;;;;;;;;;;4904792;29;20092;-81
2023/04/27 07:06:24;;;;;;;16.63;4.75;;;;;;;;;;4907272;29;20008;-79
2023/04/27 07:08:49;;;;;;;5.00;3.95;;;;;;;;;;4900344;29;20123;-78
2023/04/27 07:11:15;;;;;;;9.15;4.03;;;;;;;;;;4893051;29;20127;-78
2023/04/27 07:13:40;;;;;;;7.95;3.50;;;;;;;;;;4884838;29;20020;-85
2023/04/27 07:16:06;;;;;;;8.85;4.32;;;;;;;;;;4885543;29;20027;-79
2023/04/27 07:18:31;;;;;;;7.57;4.40;;;;;;;;;;4885200;29;20640;-79
2023/04/27 07:20:56;;;;;;;5.43;3.50;;;;;;;;;;4877347;29;20033;-78
2023/04/27 07:23:22;;;;;;;5.70;3.53;;;;;;;;;;4883902;29;20325;-79
2023/04/27 07:25:48;;;;;;;14.05;3.83;;;;;;;;;;4882589;29;20139;-84
2023/04/27 07:28:14;;;;;;;7.10;3.40;;;;;;;;;;4883644;29;20063;-82
2023/04/27 07:30:40;;;;;;;5.63;2.92;;;;;;;;;;4883911;29;20086;-83
2023/04/27 07:33:06;;;;;;;7.70;2.53;;;;;;;;;;4880683;29;20496;-81
2023/04/27 07:35:31;;;;;;;5.68;3.17;;;;;;;;;;4880426;29;20031;-81
2023/04/27 07:37:57;;;;;;;10.70;4.00;;;;;;;;;;4890149;29;20005;-80
2023/04/27 07:40:23;;;;;;;10.05;3.65;;;;;;;;;;4899788;29;20079;-82
2023/04/27 07:42:48;;;;;;;5.63;3.40;;;;;;;;;;4886204;29;20091;-80
2023/04/27 07:45:16;;;;;;;6.90;4.03;;;;;;;;;;4899611;29;20016;-80
2023/04/27 07:47:42;;;;;;;10.73;3.83;;;;;;;;;;4892205;29;20028;-78
2023/04/27 07:50:08;;;;;;;5.50;3.35;;;;;;;;;;4897717;29;20036;-78
2023/04/27 07:52:34;;;;;;;12.88;3.72;;;;;;;;;;4901179;29;20020;-80
2023/04/27 07:54:59;;;;;;;5.30;2.60;;;;;;;;;;4880932;29;20120;-78
2023/04/27 07:57:24;;;;;;;5.55;3.05;;;;;;;;;;4881611;29;20088;-78
2023/04/27 07:59:50;;;;;;;9.27;3.78;;;;;;;;;;4885533;29;20581;-78
2023/04/27 08:02:15;;;;;;;8.55;3.17;;;;;;;;;;4885935;29;20024;-78
2023/04/27 08:04:40;;;;;;;10.27;3.77;;;;;;;;;;4884549;29;20036;-80
2023/04/27 08:07:05;;;;;;;8.77;3.58;;;;;;;;;;4894755;29;20366;-80
2023/04/27 08:09:31;;;;;;;4.90;3.00;;;;;;;;;;4892618;29;20119;-79
2023/04/27 08:11:57;;;;;;;4.80;2.80;;;;;;;;;;4890467;29;20272;-78
2023/04/27 08:14:22;;;;;;;8.07;3.47;;;;;;;;;;4893030;29;20037;-80
2023/04/27 08:16:47;;;;;;;8.93;3.50;;;;;;;;;;4877743;29;20071;-80
2023/04/27 08:19:13;;;;;;;7.80;3.45;;;;;;;;;;4902223;29;20064;-78
2023/04/27 08:21:38;;;;;;;6.18;3.28;;;;;;;;;;4880447;29;20020;-78
2023/04/27 08:24:05;;;;;;;12.95;3.40;;;;;;;;;;4885951;29;20475;-79
2023/04/27 08:26:30;;;;;;;8.40;3.20;;;;;;;;;;4885868;29;20035;-79
2023/04/27 08:28:56;;;;;;;8.80;3.20;;;;;;;;;;4879087;29;20422;-77
2023/04/27 08:31:21;;;;;;;7.82;2.35;;;;;;;;;;4898063;29;20550;-78
2023/04/27 08:33:47;;;;;;;5.82;2.03;;;;;;;;;;4886326;29;20032;-81
2023/04/27 08:36:12;;;;;;;4.50;2.88;;;;;;;;;;4890888;29;20024;-79
2023/04/27 08:38:37;;;;;;;4.33;2.90;;;;;;;;;;4906189;29;20523;-79
2023/04/27 08:41:03;;;;;;;4.93;2.80;;;;;;;;;;4906732;29;20376;-78
2023/04/27 08:43:31;;;;;;;7.07;2.15;;;;;;;;;;4897696;29;20078;-78
2023/04/27 08:45:57;;;;;;;3.45;2.20;;;;;;;;;;4889579;29;20030;-79
2023/04/27 08:48:22;;;;;;;5.07;2.50;;;;;;;;;;4907186;29;20028;-81
2023/04/27 08:50:49;;;;;;;7.70;2.45;;;;;;;;;;4888371;29;20276;-79
2023/04/27 08:53:21;;;;;;;2.80;2.25;;;;;;;;;;4890594;29;20096;-81
2023/04/27 08:55:47;;;;;;;4.70;2.45;;;;;;;;;;4876617;29;20115;-80
2023/04/27 08:58:12;;;;;;;3.67;2.53;;;;;;;;;;4885948;29;20128;-82
2023/04/27 09:00:41;;;;;;;5.18;2.45;;;;;;;;;;4888150;29;20107;-79
2023/04/27 09:03:27;;;;;;;4.45;2.33;;;;;;;;;;4906824;29;20056;-77
2023/04/27 09:05:52;;;;;;;3.90;2.30;;;;;;;;;;4879070;29;20060;-77
2023/04/27 09:08:17;;;;;;;6.70;2.33;;;;;;;;;;4888420;29;20084;-78
2023/04/27 09:10:44;;;;;;;3.42;2.40;;;;;;;;;;4906942;29;20024;-82
2023/04/27 09:13:09;;;;;;;3.65;2.63;;;;;;;;;;4889119;29;20495;-82
2023/04/27 09:15:42;;;;;;;3.35;2.47;;;;;;;;;;4873321;29;20039;-78
2023/04/27 09:18:13;;;;;;;6.97;2.53;;;;;;;;;;4885964;29;20423;-79
2023/04/27 09:20:42;;;;;;;2.92;1.58;;;;;;;;;;4883779;29;21003;-79
2023/04/27 09:23:07;;;;;;;11.18;2.50;;;;;;;;;;4901475;29;20035;-88
2023/04/27 09:25:33;;;;;;;4.13;1.92;;;;;;;;;;4887281;29;20032;-81
2023/04/27 09:27:59;;;;;;;4.53;1.88;;;;;;;;;;4888660;29;20039;-81
2023/04/27 09:30:28;;;;;;;5.13;1.70;;;;;;;;;;4885429;29;20123;-81
2023/04/27 09:32:55;;;;;;;3.83;2.20;;;;;;;;;;4904038;29;20032;-80
2023/04/27 09:35:25;;;;;;;2.47;1.83;;;;;;;;;;4904371;29;20028;-82
2023/04/27 09:37:52;;;;;;;3.45;2.25;;;;;;;;;;4884284;29;20017;-80
2023/04/27 09:40:18;;;;;;;2.47;1.88;;;;;;;;;;4895979;29;20031;-77
2023/04/27 09:42:43;;;;;;;6.20;2.25;;;;;;;;;;4905565;29;20052;-80
2023/04/27 09:45:10;;;;;;;6.03;2.40;;;;;;;;;;4885878;29;20060;-81
2023/04/27 09:47:35;;;;;;;2.58;1.90;;;;;;;;;;4898745;29;20652;-79
2023/04/27 09:50:00;;;;;;;6.78;1.90;;;;;;;;;;4888393;29;20036;-83
2023/04/27 09:52:26;;;;;;;2.28;1.63;;;;;;;;;;4905622;29;20363;-79
2023/04/27 09:54:53;;;;;;;2.83;1.30;;;;;;;;;;4905494;29;20028;-83
2023/04/27 09:57:21;;;;;;;3.38;1.73;;;;;;;;;;4905838;29;20059;-81
2023/04/27 10:00:11;;;;;;;4.90;1.88;;;;;;;;;;4875047;29;20119;-80
2023/04/27 10:02:44;;;;;;;6.20;2.00;;;;;;;;;;4906301;29;20413;-79
2023/04/27 10:05:19;;;;;;;2.75;1.77;;;;;;;;;;4884397;29;20039;-79
2023/04/27 10:07:44;;;;;;;2.17;1.65;;;;;;;;;;4896940;29;20039;-78
2023/04/27 10:10:17;;;;;;;5.35;2.22;;;;;;;;;;4905797;29;20028;-79
2023/04/27 10:12:42;;;;;;;5.95;1.73;;;;;;;;;;4905520;29;20027;-79
2023/04/27 10:15:29;;;;;;;8.48;2.17;;;;;;;;;;4898734;29;20782;-81
2023/04/27 10:18:11;;;;;;;6.50;2.15;;;;;;;;;;4897462;29;20123;-81
2023/04/27 10:20:36;;;;;;;6.13;1.83;;;;;;;;;;4883055;29;20887;-85
2023/04/27 10:23:02;;;;;;;5.07;1.70;;;;;;;;;;4899406;29;20035;-78
2023/04/27 10:25:28;;;;;;;3.58;2.05;;;;;;;;;;4905287;29;20060;-81
2023/04/27 10:27:55;;;;;;;2.20;1.40;;;;;;;;;;4888305;29;20082;-81
2023/04/27 10:30:23;;;;;;;3.78;1.60;;;;;;;;;;4904634;29;20119;-82
2023/04/27 10:32:55;;;;;;;3.45;2.35;;;;;;;;;;4888777;29;20028;-78
2023/04/27 10:35:21;;;;;;;4.45;2.08;;;;;;;;;;4884464;29;20759;-79
2023/04/27 10:37:47;;;;;;;4.85;1.75;;;;;;;;;;4901543;29;20027;-82
2023/04/27 10:40:16;;;;;;;1.67;1.50;;;;;;;;;;4904854;29;20994;-78
2023/04/27 10:42:41;;;;;;;;;;;;;;;;;;4905199;29;20032;-82
2023/04/27 10:45:07;;;;;;;3.57;1.70;;;;;;;;;;4884519;29;19907;-88
2023/04/27 10:47:42;;;;;;;2.72;1.50;;;;;;;;;;4885242;29;20024;-84
2023/04/27 10:50:10;;;;;;;2.90;2.20;;;;;;;;;;4887368;29;20540;-85
2023/04/27 10:52:43;;;;;;;4.27;1.93;;;;;;;;;;4904455;29;20024;-80
2023/04/27 10:55:12;;;;;;;3.42;1.30;;;;;;;;;;4884402;29;20021;-81
2023/04/27 10:57:44;;;;;;;2.10;1.45;;;;;;;;;;4895586;29;20042;-80
2023/04/27 11:00:13;;;;;;;3.42;1.85;;;;;;;;;;4904424;29;20433;-79
2023/04/27 11:02:38;;;;;;;1.98;1.70;;;;;;;;;;4903166;29;20028;-82
2023/04/27 11:05:14;;;;;;;3.38;1.50;;;;;;;;;;4899085;29;20482;-83
2023/04/27 11:07:39;;;;;;;2.40;1.60;;;;;;;;;;4885242;29;20028;-81
2023/04/27 11:10:06;;;;;;;4.47;1.88;;;;;;;;;;4878650;29;20095;-79
2023/04/27 11:12:31;;;;;;;2.05;1.70;;;;;;;;;;4875977;29;20029;-86
2023/04/27 11:15:16;;;;;;;6.50;1.88;;;;;;;;;;4879159;29;20099;-85
2023/04/27 11:17:42;;;;;;;3.53;1.45;;;;;;;;;;4888093;29;20039;-83
2023/04/27 11:20:08;;;;;;;2.50;1.50;;;;;;;;;;4884929;29;20032;-79
2023/04/27 11:22:41;;;;;;;5.43;1.30;;;;;;;;;;4884863;29;20512;-80
2023/04/27 11:25:07;;;;;;;5.25;1.80;;;;;;;;;;4904368;29;20439;-81
2023/04/27 11:27:39;;;;;;;3.67;1.73;;;;;;;;;;4900460;29;20028;-83
2023/04/27 11:30:06;;;;;;;2.53;1.27;;;;;;;;;;4902393;29;20039;-80
2023/04/27 11:32:31;;;;;;;2.88;1.50;;;;;;;;;;4882793;29;20031;-84
2023/04/27 11:34:57;;;;;;;2.00;1.23;;;;;;;;;;4872653;29;20032;-82
2023/04/27 11:37:29;;;;;;;3.22;1.75;;;;;;;;;;4875247;29;20024;-81
2023/04/27 11:39:58;;;;;;;3.22;1.13;;;;;;;;;;4878581;29;20099;-84
2023/04/27 11:42:24;;;;;;;5.05;1.55;;;;;;;;;;4878680;29;20070;-78
2023/04/27 11:44:54;;;;;;;2.55;1.48;;;;;;;;;;4883895;29;20055;-83
2023/04/27 11:47:21;;;;;;;5.07;1.80;;;;;;;;;;4894748;29;20048;-85
2023/04/27 11:49:48;;;;;;;3.40;1.65;;;;;;;;;;4884737;29;20260;-81
2023/04/27 11:52:14;;;;;;;6.70;2.28;;;;;;;;;;4898034;29;20506;-86
2023/04/27 11:54:45;;;;;;;4.43;1.85;;;;;;;;;;4884734;29;20084;-79
2023/04/27 11:57:11;;;;;;;2.55;1.50;;;;;;;;;;4890009;29;20036;-82
2023/04/27 11:59:36;;;;;;;3.42;1.40;;;;;;;;;;4892673;29;20020;-79
2023/04/27 12:02:02;;;;;;;3.78;1.55;;;;;;;;;;4877577;29;20095;-80
2023/04/27 12:04:28;;;;;;;4.75;1.50;;;;;;;;;;4879318;29;20032;-84
2023/04/27 12:06:53;;;;;;;2.55;1.63;;;;;;;;;;4903438;29;20039;-82
2023/04/27 12:09:18;;;;;;;2.40;1.08;;;;;;;;;;4903473;29;20119;-85
2023/04/27 12:11:44;;;;;;;3.43;1.57;;;;;;;;;;4886326;29;20020;-81
2023/04/27 12:14:10;;;;;;;3.92;1.42;;;;;;;;;;4902489;29;20276;-83
2023/04/27 12:16:35;;;;;;;3.58;1.58;;;;;;;;;;4886917;29;20514;-83
2023/04/27 12:19:00;;;;;;;3.03;1.65;;;;;;;;;;4879864;29;20062;-80
2023/04/27 12:21:27;;;;;;;4.10;1.63;;;;;;;;;;4881837;29;20406;-84
2023/04/27 12:23:52;;;;;;;3.85;1.70;;;;;;;;;;4884206;29;20032;-85
2023/04/27 12:26:19;;;;;;;4.03;1.83;;;;;;;;;;4894586;29;20416;-82
2023/04/27 12:28:44;;;;;;;3.63;1.75;;;;;;;;;;4882456;29;20307;-81
2023/04/27 12:31:12;;;;;;;2.78;1.80;;;;;;;;;;4887626;29;20031;-80
2023/04/27 12:33:37;;;;;;;3.13;1.58;;;;;;;;;;4887724;29;20024;-80
2023/04/27 12:36:02;;;;;;;3.88;1.70;;;;;;;;;;4893387;29;20084;-77
2023/04/27 12:38:29;;;;;;;2.67;1.63;;;;;;;;;;4910027;29;20052;-79
2023/04/27 12:40:55;;;;;;;6.55;1.70;;;;;;;;;;4913853;29;20083;-78
2023/04/27 12:43:20;;;;;;;5.47;2.20;;;;;;;;;;4911667;29;20029;-78
2023/04/27 12:45:45;;;;;;;3.30;1.60;;;;;;;;;;4879648;29;20025;-78
2023/04/27 12:48:11;;;;;;;2.72;1.40;;;;;;;;;;4901738;29;20036;-79
2023/04/27 12:50:36;;;;;;;3.58;1.60;;;;;;;;;;4901135;29;20051;-79
2023/04/27 12:53:02;;;;;;;3.08;1.50;;;;;;;;;;4911081;29;20043;-79
2023/04/27 12:55:28;;;;;;;4.18;1.60;;;;;;;;;;4896545;29;20095;-78
2023/04/27 12:57:53;;;;;;;7.13;1.70;;;;;;;;;;4897166;29;20032;-79
2023/04/27 13:00:19;;;;;;;7.00;2.15;;;;;;;;;;4899897;29;20032;-79
2023/04/27 13:02:45;;;;;;;3.08;1.92;;;;;;;;;;4902764;29;20052;-78
2023/04/27 13:05:10;;;;;;;2.88;1.52;;;;;;;;;;4894022;29;20020;-80
2023/04/27 13:07:36;;;;;;;3.10;1.73;;;;;;;;;;4886687;29;20081;-79
2023/04/27 13:10:02;;;;;;;3.95;1.83;;;;;;;;;;4888025;29;20075;-77
2023/04/27 13:12:27;;;;;;;3.58;1.42;;;;;;;;;;4906690;29;20517;-78
2023/04/27 13:14:53;;;;;;;5.72;1.80;;;;;;;;;;4902683;29;20107;-79
2023/04/27 13:17:18;;;;;;;3.93;1.60;;;;;;;;;;4901766;29;20044;-78
2023/04/27 13:19:43;;;;;;;3.90;2.03;;;;;;;;;;4894425;29;20303;-78
2023/04/27 13:22:09;;;;;;;2.72;1.70;;;;;;;;;;4902179;29;20031;-79
2023/04/27 13:24:36;;;;;;;7.57;1.60;;;;;;;;;;4902819;29;20051;-80
2023/04/27 13:27:01;;;;;;;7.13;1.80;;;;;;;;;;4915061;29;20039;-78
2023/04/27 13:29:27;;;;;;;3.58;1.80;;;;;;;;;;4900339;29;20032;-78
2023/04/27 13:31:52;;;;;;;3.00;1.48;;;;;;;;;;4917153;29;20032;-79
2023/04/27 13:34:18;;;;;;;8.73;2.10;;;;;;;;;;4917308;29;20561;-78
2023/04/27 13:36:43;;;;;;;4.20;1.48;;;;;;;;;;4902772;29;20028;-78
2023/04/27 13:39:09;;;;;;;2.58;1.67;;;;;;;;;;4921252;29;20068;-80
2023/04/27 13:41:34;;;;;;;2.33;1.60;;;;;;;;;;4899085;29;20024;-78
2023/04/27 13:44:00;;;;;;;2.50;1.60;;;;;;;;;;4903859;29;20028;-79
2023/04/27 13:46:25;;;;;;;7.70;1.90;;;;;;;;;;4906574;29;20020;-79
2023/04/27 13:48:51;;;;;;;1.77;1.13;;;;;;;;;;4921803;29;20036;-78
2023/04/27 13:51:16;;;;;;;3.10;1.55;;;;;;;;;;4919912;29;20028;-79
2023/04/27 13:53:41;;;;;;;4.65;1.60;;;;;;;;;;4906640;29;20265;-79
2023/04/27 13:56:07;;;;;;;2.20;1.60;;;;;;;;;;4928983;29;20032;-79
2023/04/27 13:58:32;;;;;;;2.70;1.65;;;;;;;;;;4926903;29;20728;-79
2023/04/27 14:00:57;;;;;;;5.78;1.50;;;;;;;;;;4921781;29;20458;-79
2023/04/27 14:03:23;;;;;;;4.13;1.48;;;;;;;;;;4902852;29;20482;-79
2023/04/27 14:05:50;;;;;;;3.22;1.67;;;;;;;;;;4904436;29;20024;-78
2023/04/27 14:08:16;;;;;;;3.60;2.13;;;;;;;;;;4902986;29;20032;-79
2023/04/27 14:10:41;;;;;;;3.35;1.65;;;;;;;;;;4915895;29;20074;-78
2023/04/27 14:13:06;;;;;;;7.90;1.60;;;;;;;;;;4910864;29;20027;-79
2023/04/27 14:15:36;;;;;;;4.68;1.70;;;;;;;;;;4898331;29;20032;-79
2023/04/27 14:18:06;;;;;;;1.45;1.10;;;;;;;;;;4892192;29;20035;-79
2023/04/27 14:20:32;;;;;;;3.67;1.42;;;;;;;;;;4892282;29;20539;-78
2023/04/27 14:22:58;;;;;;;3.97;1.88;;;;;;;;;;4912219;29;20097;-79
2023/04/27 14:25:23;;;;;;;2.13;1.50;;;;;;;;;;4915226;29;20074;-79
2023/04/27 14:27:48;;;;;;;2.95;1.48;;;;;;;;;;4894250;29;20075;-78
2023/04/27 14:30:14;;;;;;;5.33;1.90;;;;;;;;;;4896090;29;20032;-79
2023/04/27 14:32:40;;;;;;;3.80;1.77;;;;;;;;;;4896298;29;20272;-78
2023/04/27 14:35:06;;;;;;;4.72;1.70;;;;;;;;;;4897414;29;20048;-79
2023/04/27 14:37:31;;;;;;;3.83;1.67;;;;;;;;;;4914723;29;20514;-78
2023/04/27 14:39:56;;;;;;;4.73;2.07;;;;;;;;;;4907893;29;20442;-78
2023/04/27 14:42:22;;;;;;;3.38;1.77;;;;;;;;;;4910912;29;20256;-79
2023/04/27 14:44:47;;;;;;;3.58;1.55;;;;;;;;;;4910815;29;20028;-78